createdAt,value
2018-05-25T00:01:57.973Z,6.93
2018-05-25T00:04:25.444Z,6.87
2018-05-25T00:06:52.913Z,5.90
2018-05-25T00:09:20.361Z,6.47
2018-05-25T00:11:47.842Z,6.90
2018-05-25T00:14:15.295Z,6.90
2018-05-25T00:16:42.775Z,7.13
2018-05-25T00:19:11.016Z,7.00
2018-05-25T00:21:38.461Z,6.40
2018-05-25T00:24:05.960Z,6.63
2018-05-25T00:26:34.203Z,6.30
2018-05-25T00:29:01.681Z,6.03
2018-05-25T00:31:29.124Z,6.93
2018-05-25T00:33:56.614Z,6.10
2018-05-25T00:36:24.837Z,6.40
2018-05-25T00:38:52.319Z,6.67
2018-05-25T00:41:19.781Z,7.10
2018-05-25T00:43:47.262Z,6.90
2018-05-25T00:46:15.504Z,6.93
2018-05-25T00:48:42.980Z,7.70
2018-05-25T00:51:10.459Z,7.27
2018-05-25T00:53:37.967Z,9.00
2018-05-25T00:56:05.421Z,8.00
2018-05-25T00:58:32.868Z,7.67
2018-05-25T01:01:00.333Z,7.20
2018-05-25T01:03:27.800Z,7.73
2018-05-25T01:05:55.247Z,7.40
2018-05-25T01:08:22.705Z,7.93
2018-05-25T01:10:50.188Z,7.20
2018-05-25T01:13:17.668Z,8.33
2018-05-25T01:15:45.880Z,7.30
2018-05-25T01:18:13.332Z,7.40
2018-05-25T01:20:40.783Z,7.67
2018-05-25T01:23:08.256Z,7.07
2018-05-25T01:25:35.717Z,6.87
2018-05-25T01:28:03.160Z,8.20
2018-05-25T01:30:30.628Z,7.03
2018-05-25T01:32:58.117Z,7.37
2018-05-25T01:35:25.841Z,7.40
2018-05-25T01:37:53.297Z,7.23
2018-05-25T01:40:20.767Z,6.97
2018-05-25T01:42:48.247Z,7.23
2018-05-25T01:45:15.721Z,7.60
2018-05-25T01:47:43.197Z,7.97
2018-05-25T01:50:11.425Z,6.73
2018-05-25T01:52:38.891Z,7.10
2018-05-25T01:55:06.366Z,7.40
2018-05-25T01:57:33.843Z,7.83
2018-05-25T02:00:02.109Z,8.50
2018-05-25T02:02:30.343Z,7.07
2018-05-25T02:04:57.800Z,7.87
2018-05-25T02:07:26.053Z,8.67
2018-05-25T02:09:53.535Z,8.37
2018-05-25T02:12:21.823Z,8.57
2018-05-25T02:14:49.264Z,8.47
2018-05-25T02:17:16.716Z,7.30
2018-05-25T02:19:44.192Z,8.30
2018-05-25T02:22:11.680Z,7.97
2018-05-25T02:24:39.907Z,7.53
2018-05-25T02:27:07.383Z,7.37
2018-05-25T02:29:35.333Z,7.40
2018-05-25T02:32:02.814Z,8.57
2018-05-25T02:34:30.279Z,7.53
2018-05-25T02:36:57.740Z,8.03
2018-05-25T02:39:25.988Z,8.87
2018-05-25T02:41:53.428Z,7.97
2018-05-25T02:44:20.904Z,7.73
2018-05-25T02:46:48.369Z,8.40
2018-05-25T02:49:15.825Z,7.00
2018-05-25T02:51:43.281Z,7.63
2018-05-25T02:54:10.853Z,7.57
2018-05-25T02:56:38.339Z,6.70
2018-05-25T02:59:06.607Z,7.27
2018-05-25T03:01:34.081Z,7.50
2018-05-25T03:04:02.279Z,7.07
2018-05-25T03:06:29.735Z,7.37
2018-05-25T03:08:57.190Z,6.70
2018-05-25T03:11:24.656Z,7.53
2018-05-25T03:13:52.142Z,6.73
2018-05-25T03:16:19.614Z,7.17
2018-05-25T03:18:47.071Z,6.90
2018-05-25T03:21:14.541Z,7.70
2018-05-25T03:23:42.761Z,7.80
2018-05-25T03:26:10.281Z,7.83
2018-05-25T03:28:38.528Z,8.07
2018-05-25T03:31:06.010Z,7.23
2018-05-25T03:33:34.274Z,7.57
2018-05-25T03:36:01.747Z,7.47
2018-05-25T03:38:29.989Z,7.40
2018-05-25T03:40:57.445Z,8.07
2018-05-25T03:43:24.919Z,7.73
2018-05-25T03:45:52.370Z,7.00
2018-05-25T03:48:19.835Z,7.80
2018-05-25T03:50:47.308Z,6.83
2018-05-25T03:53:15.552Z,8.07
2018-05-25T03:55:43.008Z,6.50
2018-05-25T03:58:10.487Z,7.10
2018-05-25T04:00:49.844Z,7.37
2018-05-25T04:03:18.069Z,7.33
2018-05-25T04:05:46.388Z,7.37
2018-05-25T04:08:14.633Z,6.20
2018-05-25T04:10:42.099Z,7.40
2018-05-25T04:13:09.572Z,7.13
2018-05-25T04:15:37.821Z,7.40
2018-05-25T04:18:05.275Z,7.27
2018-05-25T04:20:32.718Z,7.23
2018-05-25T04:23:00.173Z,7.50
2018-05-25T04:25:27.622Z,7.23
2018-05-25T04:27:55.071Z,7.60
2018-05-25T04:30:22.529Z,7.20
2018-05-25T04:32:49.993Z,8.33
2018-05-25T04:35:17.468Z,7.70
2018-05-25T04:37:44.976Z,7.70
2018-05-25T04:40:13.183Z,7.80
2018-05-25T04:42:40.668Z,7.40
2018-05-25T04:45:08.141Z,7.70
2018-05-25T04:47:35.620Z,7.50
2018-05-25T04:50:04.745Z,7.77
2018-05-25T04:52:32.239Z,7.83
2018-05-25T04:54:59.714Z,8.10
2018-05-25T04:57:27.183Z,8.23
2018-05-25T04:59:55.406Z,8.17
2018-05-25T05:02:22.881Z,8.77
2018-05-25T05:04:50.364Z,9.27
2018-05-25T05:07:17.792Z,9.17
2018-05-25T05:09:45.273Z,9.13
2018-05-25T05:12:12.732Z,9.33
2018-05-25T05:14:40.216Z,9.70
2018-05-25T05:17:08.513Z,8.33
2018-05-25T05:19:35.969Z,8.87
2018-05-25T05:22:03.453Z,8.80
2018-05-25T05:24:30.928Z,9.13
2018-05-25T05:26:58.436Z,9.93
2018-05-25T05:29:26.558Z,9.13
2018-05-25T05:31:54.801Z,8.70
2018-05-25T05:34:22.271Z,9.53
2018-05-25T05:36:49.736Z,7.70
2018-05-25T05:39:17.205Z,9.90
2018-05-25T05:41:44.684Z,9.03
2018-05-25T05:44:12.153Z,9.73
2018-05-25T05:46:40.392Z,8.53
2018-05-25T05:49:07.850Z,9.47
2018-05-25T05:51:35.295Z,9.23
2018-05-25T05:54:02.787Z,9.20
2018-05-25T05:56:30.244Z,9.57
2018-05-25T05:58:57.729Z,10.07
2018-05-25T06:01:25.956Z,9.77
2018-05-25T06:03:53.437Z,9.57
2018-05-25T06:06:20.893Z,9.70
2018-05-25T06:08:48.396Z,10.17
2018-05-25T06:11:15.861Z,9.70
2018-05-25T06:13:43.332Z,9.57
2018-05-25T06:16:10.827Z,10.73
2018-05-25T06:18:38.324Z,9.67
2018-05-25T06:21:05.836Z,10.17
2018-05-25T06:23:33.318Z,10.50
2018-05-25T06:26:01.543Z,11.63
2018-05-25T06:28:29.003Z,10.70
2018-05-25T06:30:56.474Z,12.43
2018-05-25T06:33:23.961Z,12.00
2018-05-25T06:35:52.202Z,11.80
2018-05-25T06:38:19.673Z,12.73
2018-05-25T06:40:47.165Z,13.57
2018-05-25T06:43:15.392Z,13.97
2018-05-25T06:45:42.857Z,11.63
2018-05-25T06:48:10.319Z,12.53
2018-05-25T06:50:37.871Z,11.83
2018-05-25T06:53:05.317Z,11.30
2018-05-25T06:55:32.782Z,13.27
2018-05-25T06:58:00.286Z,12.27
2018-05-25T07:00:27.767Z,12.30
2018-05-25T07:02:55.223Z,12.90
2018-05-25T07:05:22.712Z,12.93
2018-05-25T07:07:50.217Z,13.07
2018-05-25T07:10:18.449Z,12.50
2018-05-25T07:12:45.896Z,14.03
2018-05-25T07:15:13.375Z,12.63
2018-05-25T07:17:40.865Z,12.77
2018-05-25T07:20:09.100Z,13.27
2018-05-25T07:22:36.573Z,15.17
2018-05-25T07:25:04.032Z,12.37
2018-05-25T07:27:31.481Z,13.60
2018-05-25T07:29:58.940Z,12.37
2018-05-25T07:32:26.401Z,12.40
2018-05-25T07:34:53.857Z,12.47
2018-05-25T07:37:21.321Z,12.57
2018-05-25T07:39:48.828Z,11.97
2018-05-25T07:42:16.308Z,12.47
2018-05-25T07:44:43.787Z,13.07
2018-05-25T07:47:11.268Z,12.33
2018-05-25T07:49:39.488Z,12.23
2018-05-25T07:52:06.968Z,12.47
2018-05-25T07:54:34.431Z,11.87
2018-05-25T07:57:01.904Z,12.13
2018-05-25T07:59:30.759Z,13.07
2018-05-25T08:01:58.319Z,10.70
2018-05-25T08:04:25.801Z,13.77
2018-05-25T08:06:53.292Z,11.87
2018-05-25T08:09:20.747Z,12.50
2018-05-25T08:11:48.208Z,11.67
2018-05-25T08:14:15.685Z,9.67
2018-05-25T08:16:43.173Z,10.63
2018-05-25T08:19:10.628Z,9.87
2018-05-25T08:21:38.126Z,11.63
2018-05-25T08:24:06.369Z,11.23
2018-05-25T08:26:33.837Z,10.37
2018-05-25T08:29:01.329Z,11.10
2018-05-25T08:31:28.808Z,13.07
2018-05-25T08:33:56.292Z,11.47
2018-05-25T08:36:23.787Z,11.23
2018-05-25T08:38:51.995Z,11.50
2018-05-25T08:41:19.455Z,12.20
2018-05-25T08:43:46.951Z,11.93
2018-05-25T08:46:14.414Z,10.83
2018-05-25T08:48:41.868Z,11.13
2018-05-25T08:51:09.360Z,11.93
2018-05-25T08:53:36.823Z,10.70
2018-05-25T08:56:04.276Z,10.17
2018-05-25T08:58:31.794Z,9.50
2018-05-25T09:00:59.273Z,10.63
2018-05-25T09:03:27.492Z,10.40
2018-05-25T09:05:54.989Z,10.33
2018-05-25T09:08:22.445Z,10.40
2018-05-25T09:10:49.922Z,10.47
2018-05-25T09:13:18.171Z,9.73
2018-05-25T09:15:45.635Z,10.10
2018-05-25T09:18:13.130Z,9.43
2018-05-25T09:20:40.589Z,9.37
2018-05-25T09:23:08.074Z,11.80
2018-05-25T09:25:35.532Z,10.10
2018-05-25T09:28:02.980Z,10.53
2018-05-25T09:30:30.443Z,9.23
2018-05-25T09:32:57.919Z,9.30
2018-05-25T09:35:25.369Z,9.30
2018-05-25T09:37:53.811Z,9.27
2018-05-25T09:40:21.262Z,8.17
2018-05-25T09:42:48.760Z,7.67
2018-05-25T09:45:16.256Z,7.73
2018-05-25T09:47:43.708Z,7.03
2018-05-25T09:50:11.173Z,9.03
2018-05-25T09:52:39.519Z,7.53
2018-05-25T09:55:06.952Z,8.80
2018-05-25T09:57:34.442Z,8.37
2018-05-25T10:00:02.677Z,7.37
2018-05-25T10:02:30.149Z,8.97
2018-05-25T10:04:57.636Z,8.63
2018-05-25T10:07:25.083Z,7.43
2018-05-25T10:09:52.542Z,8.10
2018-05-25T10:12:20.029Z,7.47
2018-05-25T10:14:47.515Z,7.33
2018-05-25T10:17:15.765Z,7.00
2018-05-25T10:19:43.257Z,6.47
2018-05-25T10:22:10.720Z,6.00
2018-05-25T10:24:38.163Z,7.10
2018-05-25T10:27:05.645Z,7.27
2018-05-25T10:29:33.732Z,6.37
2018-05-25T10:32:01.245Z,6.47
2018-05-25T10:34:28.724Z,6.47
2018-05-25T10:36:56.175Z,5.50
2018-05-25T10:39:23.640Z,5.30
2018-05-25T10:41:51.116Z,5.70
2018-05-25T10:44:18.596Z,5.57
2018-05-25T10:46:46.080Z,5.60
2018-05-25T10:49:13.524Z,5.10
2018-05-25T10:51:40.996Z,5.90
2018-05-25T10:54:08.442Z,5.87
2018-05-25T10:56:35.915Z,5.37
2018-05-25T10:59:04.168Z,5.37
2018-05-25T11:01:31.648Z,5.53
2018-05-25T11:03:59.148Z,5.17
2018-05-25T11:06:26.600Z,5.00
2018-05-25T11:08:54.055Z,5.00
2018-05-25T11:11:21.521Z,5.20
2018-05-25T11:13:48.976Z,5.00
2018-05-25T11:16:16.433Z,5.20
2018-05-25T11:18:43.919Z,5.00
2018-05-25T11:21:11.384Z,4.70
2018-05-25T11:23:38.822Z,4.43
2018-05-25T11:26:06.314Z,4.57
2018-05-25T11:28:34.584Z,5.00
2018-05-25T11:31:02.028Z,4.83
2018-05-25T11:33:29.480Z,3.83
2018-05-25T11:35:56.939Z,4.13
2018-05-25T11:38:24.411Z,4.60
2018-05-25T11:40:51.892Z,4.17
2018-05-25T11:43:20.813Z,3.80
2018-05-25T11:45:48.286Z,4.00
2018-05-25T11:48:15.746Z,3.80
2018-05-25T11:50:43.259Z,4.03
2018-05-25T11:53:10.692Z,3.80
2018-05-25T11:55:38.193Z,4.03
2018-05-25T11:58:05.673Z,4.37
2018-05-25T12:00:33.163Z,4.00
2018-05-25T12:03:00.621Z,4.50
2018-05-25T12:05:28.089Z,3.90
2018-05-25T12:07:55.576Z,3.97
2018-05-25T12:10:23.034Z,4.33
2018-05-25T12:12:50.515Z,4.20
2018-05-25T12:15:17.972Z,4.40
2018-05-25T12:17:45.424Z,4.43
2018-05-25T12:20:12.880Z,4.03
2018-05-25T12:22:40.347Z,3.53
2018-05-25T12:25:07.824Z,3.17
2018-05-25T12:27:35.285Z,3.80
2018-05-25T12:30:02.751Z,3.57
2018-05-25T12:32:30.225Z,3.80
2018-05-25T12:34:57.677Z,3.80
2018-05-25T12:37:25.129Z,3.77
2018-05-25T12:39:52.585Z,3.57
2018-05-25T12:42:20.054Z,3.40
2018-05-25T12:44:59.311Z,3.73
2018-05-25T12:47:26.801Z,3.60
2018-05-25T12:49:54.263Z,3.33
2018-05-25T12:52:21.730Z,3.20
2018-05-25T12:54:49.204Z,4.00
2018-05-25T12:57:16.645Z,3.50
2018-05-25T12:59:44.120Z,4.40
2018-05-25T13:02:11.587Z,3.63
2018-05-25T13:04:40.295Z,3.30
2018-05-25T13:07:07.744Z,3.20
2018-05-25T13:09:36.017Z,3.20
2018-05-25T13:12:03.473Z,3.50
2018-05-25T13:14:31.705Z,3.17
2018-05-25T13:16:59.188Z,3.17
2018-05-25T13:19:26.643Z,3.37
2018-05-25T13:21:54.116Z,3.80
2018-05-25T13:24:21.597Z,3.03
2018-05-25T13:26:49.813Z,3.50
2018-05-25T13:29:17.456Z,3.17
2018-05-25T13:31:44.975Z,3.43
2018-05-25T13:34:13.213Z,3.50
2018-05-25T13:36:40.683Z,3.60
2018-05-25T13:39:08.124Z,3.60
2018-05-25T13:41:35.600Z,3.07
2018-05-25T13:44:03.072Z,3.10
2018-05-25T13:46:30.555Z,3.50
2018-05-25T13:48:58.789Z,2.70
2018-05-25T13:51:27.006Z,2.53
2018-05-25T13:53:55.218Z,2.57
2018-05-25T13:56:22.680Z,2.80
2018-05-25T13:58:50.152Z,2.57
2018-05-25T14:01:17.622Z,2.73
2018-05-25T14:03:45.079Z,2.63
2018-05-25T14:06:12.563Z,2.47
2018-05-25T14:08:40.777Z,2.87
2018-05-25T14:11:08.221Z,2.67
2018-05-25T14:13:35.695Z,2.70
2018-05-25T14:16:03.158Z,2.40
2018-05-25T14:18:30.611Z,2.73
2018-05-25T14:20:58.080Z,3.00
2018-05-25T14:23:25.574Z,2.87
2018-05-25T14:25:53.046Z,2.30
2018-05-25T14:28:20.525Z,2.80
2018-05-25T14:30:47.958Z,2.83
2018-05-25T14:33:16.207Z,2.70
2018-05-25T14:35:43.656Z,3.00
2018-05-25T14:38:11.132Z,2.70
2018-05-25T14:40:39.382Z,2.90
2018-05-25T14:43:06.888Z,2.60
2018-05-25T14:45:35.120Z,3.10
2018-05-25T14:48:02.569Z,2.70
2018-05-25T14:50:30.061Z,3.60
2018-05-25T14:52:58.272Z,3.20
2018-05-25T14:55:25.739Z,3.37
2018-05-25T14:57:53.250Z,3.37
2018-05-25T15:00:21.468Z,3.20
2018-05-25T15:02:48.973Z,3.17
2018-05-25T15:05:16.432Z,2.83
2018-05-25T15:07:43.892Z,2.93
2018-05-25T15:10:12.117Z,2.20
2018-05-25T15:12:39.565Z,3.17
2018-05-25T15:15:07.055Z,3.00
2018-05-25T15:17:34.528Z,3.40
2018-05-25T15:20:02.029Z,3.10
2018-05-25T15:22:29.459Z,3.13
2018-05-25T15:24:58.596Z,3.07
2018-05-25T15:27:26.082Z,2.83
2018-05-25T15:29:54.321Z,2.70
2018-05-25T15:32:21.783Z,3.03
2018-05-25T15:34:49.261Z,3.20
2018-05-25T15:37:16.719Z,3.07
2018-05-25T15:39:44.201Z,3.07
2018-05-25T15:42:11.668Z,3.30
2018-05-25T15:44:39.149Z,3.33
2018-05-25T15:47:07.384Z,3.47
2018-05-25T15:49:34.853Z,3.67
2018-05-25T15:52:02.333Z,3.17
2018-05-25T15:54:30.561Z,3.20
2018-05-25T15:56:58.012Z,3.37
2018-05-25T15:59:25.951Z,3.03
2018-05-25T16:01:53.396Z,2.93
2018-05-25T16:04:20.863Z,3.53
2018-05-25T16:06:48.317Z,3.87
2018-05-25T16:09:15.773Z,3.23
2018-05-25T16:11:43.233Z,3.47
2018-05-25T16:14:10.742Z,3.13
2018-05-25T16:16:38.209Z,3.50
2018-05-25T16:19:05.694Z,3.10
2018-05-25T16:21:33.933Z,3.30
2018-05-25T16:24:01.388Z,3.17
2018-05-25T16:26:28.849Z,3.67
2018-05-25T16:28:56.310Z,3.20
2018-05-25T16:31:23.786Z,3.13
2018-05-25T16:33:51.269Z,3.10
2018-05-25T16:36:18.730Z,3.23
2018-05-25T16:38:46.180Z,3.57
2018-05-25T16:41:13.637Z,3.10
2018-05-25T16:43:41.103Z,3.20
2018-05-25T16:46:08.599Z,3.43
2018-05-25T16:48:36.833Z,3.13
2018-05-25T16:51:04.312Z,3.37
2018-05-25T16:53:31.782Z,3.37
2018-05-25T16:55:59.261Z,3.30
2018-05-25T16:58:26.746Z,3.60
2018-05-25T17:00:54.187Z,3.17
2018-05-25T17:03:21.652Z,2.90
2018-05-25T17:05:49.872Z,2.87
2018-05-25T17:08:17.359Z,2.67
2018-05-25T17:10:44.799Z,3.03
2018-05-25T17:13:12.280Z,2.87
2018-05-25T17:15:39.728Z,3.30
2018-05-25T17:18:07.190Z,3.20
2018-05-25T17:20:34.659Z,2.80
2018-05-25T17:23:02.158Z,3.30
2018-05-25T17:25:29.633Z,2.73
2018-05-25T17:27:57.091Z,2.73
2018-05-25T17:30:24.578Z,2.90
2018-05-25T17:32:52.067Z,3.07
2018-05-25T17:35:20.296Z,3.10
2018-05-25T17:37:47.764Z,3.20
2018-05-25T17:40:16.003Z,3.10
2018-05-25T17:42:43.457Z,3.20
2018-05-25T17:45:10.913Z,3.03
2018-05-25T17:47:38.374Z,2.70
2018-05-25T17:50:05.845Z,3.03
2018-05-25T17:52:33.367Z,3.40
2018-05-25T17:55:00.843Z,3.10
2018-05-25T17:57:29.053Z,2.97
2018-05-25T17:59:56.524Z,3.00
2018-05-25T18:02:23.977Z,2.90
2018-05-25T18:04:51.457Z,3.13
2018-05-25T18:07:19.018Z,2.80
2018-05-25T18:09:46.474Z,3.10
2018-05-25T18:12:13.912Z,2.90
2018-05-25T18:14:41.369Z,2.80
2018-05-25T18:17:08.858Z,3.07
2018-05-25T18:19:36.325Z,2.80
2018-05-25T18:22:03.797Z,2.77
2018-05-25T18:24:32.038Z,3.00
2018-05-25T18:26:59.513Z,2.83
2018-05-25T18:29:27.533Z,3.07
2018-05-25T18:31:55.028Z,3.03
2018-05-25T18:34:22.467Z,2.67
2018-05-25T18:36:49.931Z,3.00
2018-05-25T18:39:17.380Z,2.87
2018-05-25T18:41:44.820Z,2.70
2018-05-25T18:44:12.269Z,3.20
2018-05-25T18:46:39.745Z,3.53
2018-05-25T18:49:07.227Z,3.20
2018-05-25T18:51:34.696Z,2.90
2018-05-25T18:54:13.892Z,3.30
2018-05-25T18:56:41.340Z,3.27
2018-05-25T18:59:08.804Z,2.87
2018-05-25T19:01:36.299Z,2.97
2018-05-25T19:04:03.798Z,3.03
2018-05-25T19:06:31.214Z,3.17
2018-05-25T19:08:58.673Z,3.30
2018-05-25T19:11:26.155Z,3.07
2018-05-25T19:13:54.374Z,3.13
2018-05-25T19:16:21.821Z,3.40
2018-05-25T19:18:49.277Z,3.23
2018-05-25T19:21:16.751Z,3.53
2018-05-25T19:23:44.233Z,3.20
2018-05-25T19:26:11.689Z,3.00
2018-05-25T19:28:39.145Z,3.07
2018-05-25T19:31:06.610Z,3.77
2018-05-25T19:33:34.085Z,3.30
2018-05-25T19:36:01.534Z,3.83
2018-05-25T19:38:29.026Z,3.50
2018-05-25T19:40:56.556Z,3.20
2018-05-25T19:43:24.039Z,3.30
2018-05-25T19:45:52.262Z,3.00
2018-05-25T19:48:19.775Z,3.20
2018-05-25T19:50:48.008Z,3.10
2018-05-25T19:53:16.229Z,3.40
2018-05-25T19:55:43.688Z,3.13
2018-05-25T19:58:11.930Z,3.33
2018-05-25T20:00:39.376Z,3.43
2018-05-25T20:03:06.821Z,3.20
2018-05-25T20:05:34.304Z,3.20
2018-05-25T20:08:01.789Z,3.47
2018-05-25T20:10:30.033Z,3.60
2018-05-25T20:12:57.481Z,3.20
2018-05-25T20:15:24.936Z,3.33
2018-05-25T20:17:52.419Z,3.50
2018-05-25T20:20:19.892Z,3.50
2018-05-25T20:22:48.119Z,3.23
2018-05-25T20:25:15.568Z,3.37
2018-05-25T20:27:43.029Z,3.07
2018-05-25T20:30:10.519Z,3.10
2018-05-25T20:32:37.985Z,3.33
2018-05-25T20:35:05.464Z,3.07
2018-05-25T20:37:33.689Z,3.07
2018-05-25T20:40:01.168Z,3.47
2018-05-25T20:42:28.650Z,3.30
2018-05-25T20:44:56.092Z,3.00
2018-05-25T20:47:23.545Z,3.37
2018-05-25T20:49:51.039Z,3.00
2018-05-25T20:52:19.287Z,3.23
2018-05-25T20:54:46.768Z,3.17
2018-05-25T20:57:14.997Z,3.00
2018-05-25T20:59:42.520Z,3.37
2018-05-25T21:02:10.025Z,3.20
2018-05-25T21:04:37.501Z,3.33
2018-05-25T21:07:04.945Z,3.17
2018-05-25T21:09:32.433Z,2.90
2018-05-25T21:12:00.705Z,2.63
2018-05-25T21:14:28.181Z,3.20
2018-05-25T21:16:55.669Z,3.50
2018-05-25T21:19:23.142Z,3.20
2018-05-25T21:21:50.625Z,3.03
2018-05-25T21:24:18.107Z,3.20
2018-05-25T21:26:46.353Z,2.93
2018-05-25T21:29:13.855Z,3.30
2018-05-25T21:31:41.337Z,3.23
2018-05-25T21:34:08.781Z,3.20
2018-05-25T21:36:36.281Z,3.13
2018-05-25T21:39:03.741Z,3.37
2018-05-25T21:41:31.179Z,2.87
2018-05-25T21:43:58.664Z,3.00
2018-05-25T21:46:26.111Z,3.03
2018-05-25T21:48:53.553Z,3.23
2018-05-25T21:51:21.034Z,2.97
2018-05-25T21:53:48.469Z,3.57
2018-05-25T21:56:15.925Z,3.40
2018-05-25T21:58:43.389Z,3.57
2018-05-25T22:01:10.864Z,3.30
2018-05-25T22:03:38.295Z,3.70
2018-05-25T22:06:05.788Z,3.50
2018-05-25T22:08:33.252Z,3.17
2018-05-25T22:11:00.732Z,3.57
2018-05-25T22:13:28.952Z,3.37
2018-05-25T22:15:56.433Z,3.43
2018-05-25T22:18:23.900Z,3.07
2018-05-25T22:20:51.356Z,3.50
2018-05-25T22:23:18.849Z,3.73
2018-05-25T22:25:46.317Z,3.43
2018-05-25T22:28:13.760Z,3.60
2018-05-25T22:30:41.252Z,3.33
2018-05-25T22:33:08.725Z,3.80
2018-05-25T22:35:36.236Z,3.20
2018-05-25T22:38:03.697Z,3.70
2018-05-25T22:40:31.171Z,3.77
2018-05-25T22:43:10.491Z,3.50
2018-05-25T22:45:49.765Z,3.43
2018-05-25T22:48:29.109Z,3.40
2018-05-25T22:51:08.507Z,3.70
2018-05-25T22:53:41.037Z,3.50
2018-05-25T22:56:08.489Z,3.10
2018-05-25T22:58:36.013Z,3.60
2018-05-25T23:01:03.481Z,3.33
2018-05-25T23:03:30.965Z,3.60
2018-05-25T23:05:58.436Z,2.90
2018-05-25T23:08:25.888Z,3.57
2018-05-25T23:10:54.105Z,3.40
2018-05-25T23:13:21.557Z,3.47
2018-05-25T23:15:49.011Z,4.00
2018-05-25T23:18:16.462Z,3.40
2018-05-25T23:20:43.920Z,3.23
2018-05-25T23:23:11.406Z,3.70
2018-05-25T23:25:38.862Z,3.40
2018-05-25T23:28:06.352Z,3.47
2018-05-25T23:30:33.832Z,3.93
2018-05-25T23:33:01.285Z,3.17
2018-05-25T23:35:28.781Z,3.10
2018-05-25T23:37:56.258Z,3.40
2018-05-25T23:40:23.745Z,3.37
2018-05-25T23:42:51.233Z,3.30
2018-05-25T23:45:19.451Z,3.77
2018-05-25T23:47:46.936Z,3.43
2018-05-25T23:50:14.387Z,3.40
2018-05-25T23:52:41.857Z,3.70
2018-05-25T23:55:09.328Z,3.63
2018-05-25T23:57:36.799Z,3.53
